createdAt,value
2019-04-29T00:03:37.094Z,101389.34
2019-04-29T00:08:41.800Z,101382.74
2019-04-29T00:14:42.457Z,101370.19
2019-04-29T00:19:31.789Z,101376.66
2019-04-29T00:24:38.979Z,101378.80
2019-04-29T00:29:49.094Z,101379.89
2019-04-29T00:35:06.506Z,101366.98
2019-04-29T00:41:18.753Z,101380.48
2019-04-29T00:46:23.005Z,101376.42
2019-04-29T00:51:28.532Z,101370.98
2019-04-29T00:57:08.616Z,101365.44
2019-04-29T01:02:49.127Z,101375.87
2019-04-29T01:08:33.137Z,101379.34
2019-04-29T01:13:58.096Z,101375.39
2019-04-29T01:19:26.400Z,101379.87
2019-04-29T01:24:47.556Z,101379.30
2019-04-29T01:29:51.778Z,101380.67
2019-04-29T01:35:08.165Z,101371.66
2019-04-29T01:40:30.627Z,101375.45
2019-04-29T01:45:49.192Z,101364.91
2019-04-29T01:51:21.356Z,101364.48
2019-04-29T01:56:25.547Z,101354.38
2019-04-29T02:01:55.830Z,101352.47
2019-04-29T02:07:10.912Z,101345.37
2019-04-29T02:12:15.120Z,101348.73
2019-04-29T02:17:30.701Z,101348.83
2019-04-29T02:22:43.015Z,101339.98
2019-04-29T02:28:05.359Z,101340.47
2019-04-29T02:33:40.656Z,101335.78
2019-04-29T02:39:05.765Z,101327.48
2019-04-29T02:44:11.230Z,101322.86
2019-04-29T02:49:15.412Z,101307.72
2019-04-29T02:54:19.631Z,101304.35
2019-04-29T02:59:29.337Z,101308.25
2019-04-29T03:04:36.863Z,101302.06
2019-04-29T03:09:45.432Z,101283.80
2019-04-29T03:14:49.570Z,101291.47
2019-04-29T03:20:20.888Z,101290.05
2019-04-29T03:25:25.082Z,101276.80
2019-04-29T03:30:29.273Z,101275.16
2019-04-29T03:35:33.625Z,101269.48
2019-04-29T03:40:38.274Z,101266.25
2019-04-29T03:45:42.473Z,101260.42
2019-04-29T03:50:46.781Z,101252.48
2019-04-29T03:55:53.355Z,101255.34
2019-04-29T04:01:22.514Z,101253.75
2019-04-29T04:06:44.422Z,101240.20
2019-04-29T04:11:48.618Z,101234.79
2019-04-29T04:17:19.998Z,101231.55
2019-04-29T04:22:21.383Z,101237.59
2019-04-29T04:27:25.563Z,101238.27
2019-04-29T04:32:29.756Z,101237.06
2019-04-29T04:37:33.937Z,101230.94
2019-04-29T04:42:38.113Z,101225.25
2019-04-29T04:47:42.297Z,101226.80
2019-04-29T04:52:46.487Z,101227.47
2019-04-29T04:57:50.690Z,101222.31
2019-04-29T05:02:55.464Z,101219.64
2019-04-29T05:07:59.821Z,101210.31
2019-04-29T05:13:04.231Z,101208.91
2019-04-29T05:18:08.426Z,101211.92
2019-04-29T05:23:12.602Z,101213.17
2019-04-29T05:28:16.813Z,101214.70
2019-04-29T05:33:21.026Z,101222.19
2019-04-29T05:38:31.687Z,101219.58
2019-04-29T05:43:47.737Z,101211.14
2019-04-29T05:48:52.131Z,101213.94
2019-04-29T05:53:57.546Z,101211.19
2019-04-29T05:59:01.735Z,101218.44
2019-04-29T06:04:06.152Z,101228.46
2019-04-29T06:09:11.587Z,101230.47
2019-04-29T06:14:16.332Z,101226.37
2019-04-29T06:19:20.530Z,101228.46
2019-04-29T06:24:24.716Z,101221.63
2019-04-29T06:29:28.939Z,101223.66
2019-04-29T06:34:35.464Z,101191.69
2019-04-29T06:39:39.105Z,101198.64
2019-04-29T06:44:44.464Z,101190.83
2019-04-29T06:49:49.228Z,101183.16
2019-04-29T06:54:53.622Z,101185.58
2019-04-29T06:59:57.825Z,101205.94
2019-04-29T07:05:02.006Z,101202.01
2019-04-29T07:10:06.637Z,101208.92
2019-04-29T07:15:12.291Z,101191.56
2019-04-29T07:20:16.823Z,101198.27
2019-04-29T07:25:24.651Z,101200.67
2019-04-29T07:30:29.303Z,101195.12
2019-04-29T07:35:32.828Z,101194.28
2019-04-29T07:40:38.865Z,101193.36
2019-04-29T07:46:03.601Z,101195.53
2019-04-29T07:51:07.010Z,101187.52
2019-04-29T07:56:11.214Z,101204.16
2019-04-29T08:01:15.411Z,101196.34
2019-04-29T08:06:19.918Z,101185.54
2019-04-29T08:11:24.506Z,101190.28
2019-04-29T08:16:28.698Z,101191.92
2019-04-29T08:21:32.893Z,101196.03
2019-04-29T08:26:37.857Z,101200.05
2019-04-29T08:31:43.035Z,101190.06
2019-04-29T08:36:47.237Z,101192.03
2019-04-29T08:41:51.474Z,101188.95
2019-04-29T08:47:05.822Z,101186.27
2019-04-29T08:52:09.998Z,101189.47
2019-04-29T08:57:14.185Z,101177.11
2019-04-29T09:02:33.235Z,101173.71
2019-04-29T09:07:24.310Z,101175.27
2019-04-29T09:12:29.367Z,101177.62
2019-04-29T09:17:33.782Z,101173.80
2019-04-29T09:22:40.508Z,101171.53
2019-04-29T09:27:46.154Z,101170.71
2019-04-29T09:32:52.522Z,101171.69
2019-04-29T09:37:58.418Z,101164.12
2019-04-29T09:43:25.819Z,101170.56
2019-04-29T09:48:30.475Z,101161.94
2019-04-29T09:53:34.801Z,101167.87
2019-04-29T09:58:39.100Z,101154.59
2019-04-29T10:03:58.913Z,101157.62
2019-04-29T10:09:03.108Z,101151.11
2019-04-29T10:14:07.590Z,101156.69
2019-04-29T10:19:30.724Z,101160.22
2019-04-29T10:24:34.931Z,101160.22
2019-04-29T10:29:40.019Z,101161.34
2019-04-29T10:34:44.213Z,101163.36
2019-04-29T10:39:54.778Z,101165.67
2019-04-29T10:45:20.993Z,101161.13
2019-04-29T10:50:32.105Z,101163.64
2019-04-29T10:55:37.052Z,101154.87
2019-04-29T11:01:29.122Z,101162.76
2019-04-29T11:06:35.816Z,101168.41
2019-04-29T11:11:39.217Z,101166.59
2019-04-29T11:16:46.374Z,101164.91
2019-04-29T11:21:49.544Z,101166.95
2019-04-29T11:27:12.570Z,101167.72
2019-04-29T11:32:29.090Z,101161.15
2019-04-29T11:37:30.774Z,101156.44
2019-04-29T11:42:36.434Z,101160.59
2019-04-29T11:47:41.015Z,101164.62
2019-04-29T11:52:45.223Z,101156.11
2019-04-29T11:57:54.231Z,101158.50
2019-04-29T12:03:00.989Z,101151.22
2019-04-29T12:08:11.705Z,101140.39
2019-04-29T12:13:18.949Z,101139.60
2019-04-29T12:18:28.150Z,101135.20
2019-04-29T12:23:32.345Z,101143.86
2019-04-29T12:28:37.937Z,101139.91
2019-04-29T12:33:58.650Z,101136.08
2019-04-29T12:39:42.369Z,101135.20
2019-04-29T12:44:39.633Z,101131.65
2019-04-29T12:49:42.483Z,101131.25
2019-04-29T12:54:47.745Z,101119.98
2019-04-29T12:59:54.480Z,101117.59
2019-04-29T13:05:03.857Z,101114.54
2019-04-29T13:10:15.792Z,101116.70
2019-04-29T13:15:49.661Z,101109.14
2019-04-29T13:20:54.330Z,101107.55
2019-04-29T13:25:59.268Z,101110.33
2019-04-29T13:31:03.576Z,101098.09
2019-04-29T13:36:08.669Z,101100.31
2019-04-29T13:41:14.250Z,101092.23
2019-04-29T13:46:51.053Z,101094.87
2019-04-29T13:51:54.274Z,101084.05
2019-04-29T13:57:07.568Z,101073.58
2019-04-29T14:02:30.565Z,101066.96
2019-04-29T14:07:28.187Z,101058.34
2019-04-29T14:12:52.346Z,101058.80
2019-04-29T14:17:38.635Z,101051.58
2019-04-29T14:22:42.913Z,101052.92
2019-04-29T14:27:50.232Z,101051.30
2019-04-29T14:33:01.590Z,101048.62
2019-04-29T14:38:05.337Z,101049.63
2019-04-29T14:43:32.169Z,101035.38
2019-04-29T14:48:42.480Z,101035.38
2019-04-29T14:53:56.194Z,101055.00
2019-04-29T14:59:05.713Z,101048.81
2019-04-29T15:03:59.622Z,101048.73
2019-04-29T15:09:05.437Z,101056.67
2019-04-29T15:14:34.316Z,101057.06
2019-04-29T15:19:55.439Z,101049.38
2019-04-29T15:24:57.167Z,101047.23
2019-04-29T15:30:01.367Z,101043.16
2019-04-29T15:35:06.097Z,101044.88
2019-04-29T15:40:10.806Z,101048.27
2019-04-29T15:45:15.126Z,101031.41
2019-04-29T15:50:19.623Z,101036.09
2019-04-29T15:55:23.876Z,101041.73
2019-04-29T16:00:36.693Z,101044.78
2019-04-29T16:05:56.030Z,101043.37
2019-04-29T16:11:05.739Z,101043.44
2019-04-29T16:16:09.932Z,101048.56
2019-04-29T16:21:14.138Z,101043.87
2019-04-29T16:26:18.342Z,101046.17
2019-04-29T16:31:22.536Z,101046.38
2019-04-29T16:36:26.774Z,101053.30
2019-04-29T16:41:58.246Z,101046.28
2019-04-29T16:46:57.436Z,101050.99
2019-04-29T16:52:01.812Z,101062.80
2019-04-29T16:57:06.183Z,101065.05
2019-04-29T17:02:10.405Z,101070.45
2019-04-29T17:07:16.209Z,101067.58
2019-04-29T17:12:20.810Z,101076.63
2019-04-29T17:17:29.174Z,101083.80
2019-04-29T17:22:35.527Z,101091.56
2019-04-29T17:28:11.978Z,101095.58
2019-04-29T17:33:49.702Z,101092.31
2019-04-29T17:38:50.064Z,101099.03
2019-04-29T17:44:18.747Z,101105.03
2019-04-29T17:49:56.391Z,101117.39
2019-04-29T17:55:09.999Z,101115.40
2019-04-29T18:00:42.269Z,101115.39
2019-04-29T18:06:02.769Z,101121.37
2019-04-29T18:11:08.227Z,101132.80
2019-04-29T18:16:19.123Z,101143.23
2019-04-29T18:21:48.625Z,101152.41
2019-04-29T18:26:57.887Z,101159.63
2019-04-29T18:32:05.173Z,101162.95
2019-04-29T18:37:09.004Z,101176.41
2019-04-29T18:42:13.608Z,101177.72
2019-04-29T18:47:22.661Z,101178.28
2019-04-29T18:52:27.873Z,101181.70
2019-04-29T18:57:30.897Z,101191.55
2019-04-29T19:02:45.002Z,101198.81
2019-04-29T19:07:52.528Z,101200.55
2019-04-29T19:12:57.411Z,101207.07
2019-04-29T19:18:01.358Z,101204.78
2019-04-29T19:23:08.211Z,101207.08
2019-04-29T19:28:14.314Z,101211.84
2019-04-29T19:33:15.027Z,101215.76
2019-04-29T19:38:19.492Z,101213.34
2019-04-29T19:43:23.751Z,101213.67
2019-04-29T19:48:28.742Z,101214.34
2019-04-29T19:53:37.802Z,101207.45
2019-04-29T19:58:39.571Z,101204.41
2019-04-29T20:03:59.328Z,101207.13
2019-04-29T20:09:16.098Z,101213.48
2019-04-29T20:14:18.912Z,101217.41
2019-04-29T20:19:35.475Z,101224.31
2019-04-29T20:24:40.220Z,101226.27
2019-04-29T20:29:45.777Z,101230.28
2019-04-29T20:34:50.389Z,101230.49
2019-04-29T20:39:57.243Z,101242.20
2019-04-29T20:45:00.691Z,101244.97
2019-04-29T20:50:09.035Z,101251.02
2019-04-29T20:55:12.100Z,101253.05
2019-04-29T21:00:20.219Z,101263.00
2019-04-29T21:05:24.832Z,101268.83
2019-04-29T21:10:29.599Z,101271.90
2019-04-29T21:15:48.763Z,101279.47
2019-04-29T21:20:49.053Z,101275.33
2019-04-29T21:25:53.249Z,101281.64
2019-04-29T21:30:57.466Z,101277.10
2019-04-29T21:36:10.144Z,101281.58
2019-04-29T21:41:20.168Z,101287.77
2019-04-29T21:46:29.378Z,101292.37
2019-04-29T21:51:31.440Z,101287.37
2019-04-29T21:56:35.698Z,101288.08
2019-04-29T22:01:40.229Z,101285.94
2019-04-29T22:06:45.833Z,101287.59
2019-04-29T22:11:50.433Z,101295.38
2019-04-29T22:16:57.074Z,101290.72
2019-04-29T22:22:01.671Z,101281.47
2019-04-29T22:27:08.198Z,101279.83
2019-04-29T22:32:14.663Z,101282.68
2019-04-29T22:37:20.672Z,101277.93
2019-04-29T22:42:30.177Z,101285.44
2019-04-29T22:47:34.362Z,101289.98
2019-04-29T22:52:38.721Z,101292.03
2019-04-29T22:57:42.933Z,101292.35
2019-04-29T23:02:47.267Z,101285.28
2019-04-29T23:07:52.904Z,101285.59
2019-04-29T23:12:57.663Z,101285.45
2019-04-29T23:18:01.945Z,101281.27
2019-04-29T23:23:10.813Z,101275.64
2019-04-29T23:28:15.004Z,101274.24
2019-04-29T23:33:23.000Z,101269.05
2019-04-29T23:38:25.611Z,101263.43
2019-04-29T23:43:29.891Z,101262.22
2019-04-29T23:48:39.607Z,101259.37
2019-04-29T23:53:39.988Z,101252.69
2019-04-29T23:58:49.873Z,101250.36
